Time;durP1;ratioP1;P1;durP2;ratioP2;P2;SDS_P1;SDS_P2;PMS_P1;PMS_P2;Temp;Humidity;BMP_temperature;BMP_pressure;BME280_temperature;BME280_humidity;BME280_pressure;Samples;Min_cycle;Max_cycle;Signal;HPM_P1;HPM_P2
2022/05/17 00:01:55;;;;;;;24.23;9.50;;;14.60;99.90;;;;;;5023521;28;20452;-68
2022/05/17 00:04:21;;;;;;;21.00;7.97;;;14.60;99.90;;;;;;5023686;28;20508;-68
2022/05/17 00:06:50;;;;;;;19.75;9.00;;;14.60;99.90;;;;;;5022905;28;20484;-68
2022/05/17 00:09:17;;;;;;;19.05;9.15;;;14.60;99.90;;;;;;5020830;28;20053;-68
2022/05/17 00:11:47;;;;;;;18.52;7.95;;;14.60;99.90;;;;;;5022959;28;20049;-68
2022/05/17 00:14:14;;;;;;;18.08;8.15;;;14.50;99.90;;;;;;5021981;28;20124;-68
2022/05/17 00:16:41;;;;;;;19.27;8.82;;;14.50;99.90;;;;;;5022198;28;20053;-68
2022/05/17 00:19:07;;;;;;;22.38;8.05;;;14.50;99.90;;;;;;5022214;28;20076;-68
2022/05/17 00:21:32;;;;;;;17.90;8.13;;;14.50;99.90;;;;;;5022773;28;20081;-68
2022/05/17 00:23:58;;;;;;;15.82;7.78;;;14.40;99.90;;;;;;5024000;28;20056;-68
2022/05/17 00:26:25;;;;;;;19.40;7.80;;;14.50;99.90;;;;;;5037542;28;20053;-68
2022/05/17 00:28:51;;;;;;;19.02;8.05;;;14.40;99.90;;;;;;5024340;28;20626;-68
2022/05/17 00:31:17;;;;;;;23.60;9.45;;;14.40;99.90;;;;;;5023127;28;20065;-68
2022/05/17 00:33:42;;;;;;;20.00;8.82;;;14.30;99.90;;;;;;5023046;28;20056;-68
2022/05/17 00:36:08;;;;;;;19.42;8.43;;;14.30;99.90;;;;;;5023413;28;20567;-68
2022/05/17 00:38:34;;;;;;;19.60;7.47;;;14.30;99.90;;;;;;5025152;28;20369;-68
2022/05/17 00:41:00;;;;;;;15.23;7.50;;;14.20;99.90;;;;;;5023931;28;20115;-68
2022/05/17 00:44:42;;;;;;;16.80;7.25;;;14.20;99.90;;;;;;5024473;28;20724;-68
2022/05/17 00:46:21;;;;;;;20.98;8.60;;;13.20;99.90;;;;;;5022220;28;20107;-68
2022/05/17 00:48:48;;;;;;;16.27;7.38;;;14.20;99.90;;;;;;5023696;28;20385;-68
2022/05/17 00:51:14;;;;;;;15.15;7.85;;;14.20;99.90;;;;;;5022971;28;20117;-68
2022/05/17 00:53:39;;;;;;;18.33;7.93;;;14.20;99.90;;;;;;5024445;28;20132;-68
2022/05/17 00:56:18;;;;;;;13.52;7.13;;;14.20;99.90;;;;;;5026219;28;20045;-67
2022/05/17 00:58:52;;;;;;;22.98;8.57;;;14.20;99.90;;;;;;5025383;28;20522;-68
2022/05/17 01:01:25;;;;;;;11.70;7.65;;;14.20;99.90;;;;;;5025743;28;20506;-68
2022/05/17 01:03:53;;;;;;;;;;;14.10;99.90;;;;;;5027252;28;20132;-68
2022/05/17 01:06:20;;;;;;;18.95;8.00;;;14.10;99.90;;;;;;5028082;28;19931;-68
2022/05/17 01:08:45;;;;;;;15.23;7.97;;;14.10;99.90;;;;;;5027194;28;20506;-68
2022/05/17 01:11:11;;;;;;;15.68;6.45;;;14.00;99.90;;;;;;5026511;28;20519;-68
2022/05/17 01:16:23;;;;;;;19.48;8.52;;;13.90;99.90;;;;;;5026181;28;20079;-68
2022/05/17 01:18:49;;;;;;;24.52;8.80;;;14.00;99.90;;;;;;5027845;28;20045;-68
2022/05/17 01:21:15;;;;;;;18.98;9.07;;;13.90;99.90;;;;;;5026446;28;20055;-68
2022/05/17 01:23:40;;;;;;;17.27;8.25;;;13.90;99.90;;;;;;5026232;28;20061;-68
2022/05/17 01:26:20;;;;;;;18.40;7.93;;;13.90;99.90;;;;;;5026316;28;20178;-68
2022/05/17 01:28:48;;;;;;;17.73;7.38;;;13.90;99.90;;;;;;5024816;28;20136;-68
2022/05/17 01:31:15;;;;;;;20.83;8.68;;;13.90;99.90;;;;;;5025342;28;20149;-67
2022/05/17 01:33:41;;;;;;;23.10;8.85;;;13.90;99.90;;;;;;5026453;28;20099;-68
2022/05/17 01:36:09;;;;;;;18.05;8.30;;;13.90;99.90;;;;;;5025831;28;20073;-68
2022/05/17 01:38:36;;;;;;;17.27;7.53;;;13.90;99.90;;;;;;5026145;28;20088;-68
2022/05/17 01:41:03;;;;;;;16.13;8.32;;;13.90;99.90;;;;;;5026242;28;20041;-69
2022/05/17 01:43:29;;;;;;;18.50;7.95;;;13.90;99.90;;;;;;5027825;28;20045;-68
2022/05/17 01:45:55;;;;;;;19.52;8.90;;;13.90;99.90;;;;;;5024975;28;20045;-68
2022/05/17 01:48:21;;;;;;;14.68;7.97;;;13.80;99.90;;;;;;5026015;28;20083;-68
2022/05/17 01:50:46;;;;;;;20.25;8.93;;;13.80;99.90;;;;;;5026414;28;20037;-68
2022/05/17 01:53:12;;;;;;;34.03;10.93;;;13.80;99.90;;;;;;5027134;28;20046;-68
2022/05/17 01:55:38;;;;;;;19.90;7.78;;;13.80;99.90;;;;;;5026065;28;20061;-68
2022/05/17 01:58:04;;;;;;;18.48;7.68;;;13.80;99.90;;;;;;5026138;28;20053;-69
2022/05/17 02:00:31;;;;;;;18.58;6.88;;;13.70;99.90;;;;;;5026277;28;20404;-68
2022/05/17 02:02:57;;;;;;;19.65;8.52;;;13.70;99.90;;;;;;5026716;28;20091;-68
2022/05/17 02:05:24;;;;;;;23.13;8.75;;;13.70;99.90;;;;;;5024234;28;20049;-68
2022/05/17 02:07:50;;;;;;;15.43;7.78;;;13.70;99.90;;;;;;5026095;28;20049;-68
2022/05/17 02:10:17;;;;;;;26.13;8.75;;;13.70;99.90;;;;;;5025675;28;20049;-68
2022/05/17 02:12:43;;;;;;;18.20;7.80;;;13.70;99.90;;;;;;5025033;28;20049;-68
2022/05/17 02:15:09;;;;;;;20.77;7.75;;;13.70;99.90;;;;;;5025732;28;20511;-68
2022/05/17 02:17:35;;;;;;;22.83;8.10;;;13.70;99.90;;;;;;5023977;28;20081;-68
2022/05/17 02:20:02;;;;;;;15.75;7.95;;;13.70;99.90;;;;;;5025184;28;20493;-68
2022/05/17 02:22:28;;;;;;;26.90;7.97;;;13.70;99.90;;;;;;5026109;28;20045;-68
2022/05/17 02:24:53;;;;;;;18.77;7.63;;;13.60;99.90;;;;;;5022645;28;20128;-68
2022/05/17 02:27:19;;;;;;;23.63;7.70;;;13.60;99.90;;;;;;5024297;28;20053;-68
2022/05/17 02:29:45;;;;;;;15.23;7.05;;;13.60;99.90;;;;;;5024760;28;20049;-67
2022/05/17 02:32:11;;;;;;;20.35;8.10;;;13.60;99.90;;;;;;5025280;28;20123;-68
2022/05/17 02:34:40;;;;;;;21.20;8.07;;;13.60;99.90;;;;;;5025574;28;20437;-67
2022/05/17 02:37:06;;;;;;;19.70;8.23;;;13.60;99.90;;;;;;5024652;28;20053;-68
2022/05/17 02:39:32;;;;;;;20.63;8.20;;;13.50;99.90;;;;;;5024355;28;20052;-69
2022/05/17 02:41:57;;;;;;;20.27;8.35;;;13.50;99.90;;;;;;5024004;28;20055;-68
2022/05/17 02:44:23;;;;;;;20.98;8.30;;;13.50;99.90;;;;;;5025082;28;20396;-68
2022/05/17 02:46:49;;;;;;;25.02;8.95;;;13.50;99.90;;;;;;5024398;28;20041;-68
2022/05/17 02:49:15;;;;;;;19.63;7.93;;;13.50;99.90;;;;;;5025824;28;20115;-68
2022/05/17 02:51:44;;;;;;;18.95;8.57;;;13.40;99.90;;;;;;5026539;28;20053;-68
2022/05/17 02:54:10;;;;;;;19.38;8.50;;;13.40;99.90;;;;;;5025331;28;20041;-68
2022/05/17 02:56:36;;;;;;;22.67;8.13;;;13.40;99.90;;;;;;5025516;28;20061;-68
2022/05/17 02:59:02;;;;;;;17.75;8.68;;;13.30;99.90;;;;;;5024922;28;20050;-68
2022/05/17 03:01:28;;;;;;;15.63;7.78;;;13.40;99.90;;;;;;5024857;28;20483;-68
2022/05/17 03:03:54;;;;;;;13.50;7.15;;;13.30;99.90;;;;;;5025178;28;20052;-68
2022/05/17 03:06:19;;;;;;;18.33;8.52;;;13.30;99.90;;;;;;5024154;28;20083;-69
2022/05/17 03:08:45;;;;;;;16.42;6.95;;;13.30;99.90;;;;;;5023632;28;20160;-68
2022/05/17 03:11:11;;;;;;;15.55;7.47;;;13.20;99.90;;;;;;5025035;28;20041;-68
2022/05/17 03:13:37;;;;;;;15.85;7.82;;;13.20;99.90;;;;;;5026436;28;20053;-68
2022/05/17 03:16:03;;;;;;;12.00;7.20;;;13.20;99.90;;;;;;5024908;28;20099;-69
2022/05/17 03:18:28;;;;;;;19.23;8.35;;;13.20;99.90;;;;;;5025103;28;20088;-68
2022/05/17 03:20:54;;;;;;;19.48;7.25;;;13.20;99.90;;;;;;5024863;28;20111;-68
2022/05/17 03:23:20;;;;;;;17.27;7.43;;;13.20;99.90;;;;;;5024006;28;20037;-68
2022/05/17 03:25:46;;;;;;;15.27;7.25;;;13.10;99.90;;;;;;5024267;28;20057;-68
2022/05/17 03:28:13;;;;;;;11.85;6.65;;;13.20;99.90;;;;;;5025063;28;20072;-68
2022/05/17 03:30:40;;;;;;;16.92;6.43;;;13.10;99.90;;;;;;5023923;28;20050;-68
2022/05/17 03:33:05;;;;;;;15.52;6.65;;;13.10;99.90;;;;;;5024161;28;20041;-68
2022/05/17 03:35:32;;;;;;;11.88;6.38;;;13.10;99.90;;;;;;5025068;28;20091;-68
2022/05/17 03:37:57;;;;;;;9.70;5.90;;;13.10;99.90;;;;;;5022420;28;20057;-68
2022/05/17 03:40:23;;;;;;;18.05;6.43;;;13.10;99.90;;;;;;5024813;28;20542;-68
2022/05/17 03:42:49;;;;;;;12.23;5.82;;;13.10;99.90;;;;;;5023022;28;20049;-68
2022/05/17 03:45:15;;;;;;;17.90;6.63;;;13.10;99.90;;;;;;5022841;28;20120;-68
2022/05/17 03:47:40;;;;;;;11.93;6.05;;;13.10;99.90;;;;;;5019996;28;20131;-68
2022/05/17 03:50:10;;;;;;;15.10;7.00;;;13.10;99.90;;;;;;5023788;28;20051;-68
2022/05/17 03:52:36;;;;;;;13.10;5.80;;;13.10;99.90;;;;;;5024403;28;20080;-68
2022/05/17 03:55:04;;;;;;;14.90;5.65;;;13.10;99.90;;;;;;5024223;28;20311;-68
2022/05/17 03:57:30;;;;;;;13.48;5.47;;;13.10;99.90;;;;;;5023636;28;20053;-68
2022/05/17 03:59:56;;;;;;;18.15;7.50;;;13.20;99.90;;;;;;5024345;28;20081;-68
2022/05/17 04:02:23;;;;;;;13.00;5.70;;;13.20;99.90;;;;;;5023796;28;20076;-68
2022/05/17 04:04:55;;;;;;;18.70;6.20;;;13.20;99.90;;;;;;5023586;28;20136;-68
2022/05/17 04:07:22;;;;;;;16.98;5.82;;;13.30;99.90;;;;;;5022633;28;20271;-68
2022/05/17 04:09:47;;;;;;;10.30;5.22;;;13.40;99.90;;;;;;5022156;28;20049;-68
2022/05/17 04:12:13;;;;;;;11.18;5.40;;;13.40;99.90;;;;;;5023287;28;20042;-68
2022/05/17 04:14:39;;;;;;;17.58;6.55;;;13.50;99.90;;;;;;5024634;28;20038;-68
2022/05/17 04:17:05;;;;;;;14.18;6.50;;;13.60;99.90;;;;;;5021411;28;20057;-68
2022/05/17 04:19:33;;;;;;;16.92;6.22;;;13.70;99.90;;;;;;5024298;28;20049;-68
2022/05/17 04:22:01;;;;;;;15.15;5.30;;;13.70;99.90;;;;;;5021942;28;20049;-68
2022/05/17 04:24:27;;;;;;;14.05;5.88;;;13.80;99.90;;;;;;5023398;28;20674;-68
2022/05/17 04:26:53;;;;;;;12.10;5.60;;;13.80;99.90;;;;;;5022886;28;20124;-68
2022/05/17 04:29:20;;;;;;;16.15;5.72;;;13.90;99.90;;;;;;5026281;28;20060;-68
2022/05/17 04:31:46;;;;;;;12.18;4.70;;;14.00;99.90;;;;;;5026791;28;20056;-67
2022/05/17 04:34:12;;;;;;;14.65;5.28;;;14.10;99.90;;;;;;5026584;28;20096;-69
2022/05/17 04:36:38;;;;;;;17.20;5.70;;;14.10;99.90;;;;;;5026854;28;20072;-69
2022/05/17 04:39:04;;;;;;;11.32;4.80;;;14.20;99.90;;;;;;5025327;28;20107;-68
2022/05/17 04:41:29;;;;;;;22.45;5.35;;;14.30;99.90;;;;;;5026718;28;20060;-68
2022/05/17 04:43:55;;;;;;;18.48;6.07;;;14.40;99.90;;;;;;5027623;28;20053;-68
2022/05/17 04:46:21;;;;;;;13.38;4.68;;;14.40;99.90;;;;;;5027199;28;20042;-68
2022/05/17 04:48:47;;;;;;;17.42;5.93;;;14.50;99.90;;;;;;5024442;28;20080;-68
2022/05/17 04:51:14;;;;;;;16.13;5.25;;;14.60;99.90;;;;;;5026356;28;20080;-68
2022/05/17 04:53:41;;;;;;;14.98;5.03;;;14.60;99.90;;;;;;5027534;28;20128;-68
2022/05/17 04:56:10;;;;;;;14.85;5.20;;;14.70;99.90;;;;;;5025346;28;20095;-68
2022/05/17 04:58:37;;;;;;;18.60;5.57;;;14.70;99.90;;;;;;5025642;28;20045;-68
2022/05/17 05:01:03;;;;;;;17.13;4.78;;;14.70;99.90;;;;;;5024440;28;20045;-68
2022/05/17 05:03:29;;;;;;;12.18;5.53;;;14.70;99.90;;;;;;5027010;28;20053;-68
2022/05/17 05:05:55;;;;;;;10.65;4.35;;;14.70;99.90;;;;;;5025554;28;20050;-67
2022/05/17 05:08:23;;;;;;;12.73;4.28;;;14.70;99.90;;;;;;5025320;28;20059;-68
2022/05/17 05:10:52;;;;;;;14.50;5.53;;;14.70;99.90;;;;;;5021841;28;20094;-68
2022/05/17 05:13:20;;;;;;;16.60;5.22;;;14.70;99.90;;;;;;5025448;28;20514;-68
2022/05/17 05:15:46;;;;;;;12.85;4.68;;;14.70;99.90;;;;;;5026972;28;20132;-67
2022/05/17 05:18:12;;;;;;;17.75;4.78;;;14.70;99.90;;;;;;5025023;28;20053;-67
2022/05/17 05:20:41;;;;;;;15.70;5.80;;;14.70;99.90;;;;;;5027256;28;20037;-68
2022/05/17 05:23:07;;;;;;;14.90;4.85;;;14.70;99.90;;;;;;5021235;28;20452;-68
2022/05/17 05:25:34;;;;;;;14.52;4.47;;;14.70;99.90;;;;;;5027234;28;20172;-68
2022/05/17 05:28:03;;;;;;;12.40;4.88;;;14.80;99.90;;;;;;5024587;28;20534;-68
2022/05/17 05:30:30;;;;;;;13.52;4.38;;;14.80;99.90;;;;;;5027055;28;20512;-68
2022/05/17 05:32:59;;;;;;;12.98;4.85;;;14.80;99.90;;;;;;5024566;28;20041;-68
2022/05/17 05:35:25;;;;;;;20.90;5.85;;;14.80;99.90;;;;;;5025993;28;20042;-68
2022/05/17 05:37:52;;;;;;;9.60;4.75;;;14.90;99.90;;;;;;5024496;28;20475;-68
2022/05/17 05:40:18;;;;;;;12.80;4.07;;;14.90;99.90;;;;;;5024034;28;20081;-68
2022/05/17 05:42:44;;;;;;;17.92;5.20;;;14.90;99.90;;;;;;5024756;28;20091;-67
2022/05/17 05:45:11;;;;;;;14.13;5.28;;;15.00;99.90;;;;;;5023778;28;20045;-68
2022/05/17 05:47:37;;;;;;;13.77;5.20;;;15.10;99.90;;;;;;5026771;28;20554;-68
2022/05/17 05:50:03;;;;;;;14.05;5.07;;;15.20;99.90;;;;;;5025254;28;20041;-68
2022/05/17 05:52:29;;;;;;;13.75;4.75;;;15.20;99.90;;;;;;5025459;28;20526;-68
2022/05/17 05:54:55;;;;;;;18.67;5.88;;;15.30;99.90;;;;;;5026285;28;20073;-67
2022/05/17 05:57:21;;;;;;;15.18;4.50;;;15.40;99.90;;;;;;5025737;28;20092;-68
2022/05/17 05:59:46;;;;;;;15.38;4.30;;;15.40;99.90;;;;;;5025894;28;20076;-68
2022/05/17 06:02:12;;;;;;;11.85;4.70;;;15.40;99.90;;;;;;5025961;28;20033;-68
2022/05/17 06:04:38;;;;;;;16.33;5.57;;;15.50;99.90;;;;;;5022805;28;20094;-68
2022/05/17 06:07:05;;;;;;;18.73;6.03;;;15.50;99.90;;;;;;5024667;28;20508;-68
2022/05/17 06:09:31;;;;;;;16.65;5.45;;;15.50;99.90;;;;;;5026483;28;20388;-68
2022/05/17 06:11:56;;;;;;;11.88;5.10;;;14.80;99.90;;;;;;5023666;28;20072;-68
2022/05/17 06:14:22;;;;;;;12.00;5.10;;;15.50;99.90;;;;;;5026176;28;20049;-68
2022/05/17 06:16:49;;;;;;;12.40;5.70;;;15.60;99.90;;;;;;5024296;28;20049;-68
2022/05/17 06:19:18;;;;;;;12.00;5.55;;;15.70;99.90;;;;;;5025424;28;20443;-68
2022/05/17 06:21:44;;;;;;;15.38;5.40;;;15.70;99.90;;;;;;5026119;28;20126;-68
2022/05/17 06:24:10;;;;;;;11.82;5.32;;;15.80;99.90;;;;;;5022297;28;20049;-68
2022/05/17 06:26:36;;;;;;;17.20;6.03;;;15.90;99.90;;;;;;5025517;28;20583;-68
2022/05/17 06:29:02;;;;;;;15.82;5.38;;;15.90;99.90;;;;;;5024748;28;20077;-69
2022/05/17 06:31:28;;;;;;;11.93;5.20;;;16.00;99.90;;;;;;5026081;28;20111;-67
2022/05/17 06:33:53;;;;;;;16.75;5.50;;;16.00;99.90;;;;;;5019564;28;20041;-69
2022/05/17 06:36:19;;;;;;;21.17;6.15;;;16.10;99.90;;;;;;5024813;28;20049;-67
2022/05/17 06:38:45;;;;;;;10.63;4.95;;;16.10;99.90;;;;;;5024509;28;20053;-69
2022/05/17 06:41:10;;;;;;;17.67;5.50;;;16.20;99.90;;;;;;5024082;28;20084;-69
2022/05/17 06:43:36;;;;;;;13.55;5.15;;;16.20;99.90;;;;;;5024080;28;20115;-69
2022/05/17 06:46:02;;;;;;;12.88;4.57;;;16.20;99.90;;;;;;5019935;28;20048;-69
2022/05/17 06:48:29;;;;;;;12.00;5.15;;;16.20;99.90;;;;;;5025587;28;20431;-69
2022/05/17 06:51:01;;;;;;;10.30;4.57;;;16.30;99.90;;;;;;5019138;28;20492;-69
2022/05/17 06:53:30;;;;;;;14.20;5.30;;;16.30;99.90;;;;;;5025332;28;20435;-69
2022/05/17 06:55:59;;;;;;;14.20;5.03;;;16.30;99.90;;;;;;5023032;28;20049;-69
2022/05/17 06:58:28;;;;;;;11.27;4.68;;;16.40;99.90;;;;;;5023588;28;20128;-68
2022/05/17 07:00:57;;;;;;;11.55;3.72;;;16.50;99.90;;;;;;5020742;28;20045;-69
2022/05/17 07:03:23;;;;;;;11.43;4.50;;;16.60;99.90;;;;;;5023604;28;20515;-69
2022/05/17 07:05:49;;;;;;;14.60;4.35;;;16.60;99.90;;;;;;5021173;28;20076;-69
2022/05/17 07:08:14;;;;;;;11.07;4.28;;;16.70;99.90;;;;;;5023609;28;20041;-69
2022/05/17 07:13:24;;;;;;;13.60;5.13;;;16.80;99.90;;;;;;5024493;28;20057;-68
2022/05/17 07:15:51;;;;;;;12.75;5.00;;;16.90;99.90;;;;;;5023978;28;20080;-69
2022/05/17 07:18:19;;;;;;;13.80;5.28;;;17.00;99.90;;;;;;5023686;28;20477;-69
2022/05/17 07:20:49;;;;;;;11.40;4.43;;;17.10;99.90;;;;;;5023922;28;20132;-69
2022/05/17 07:23:15;;;;;;;16.00;5.03;;;17.20;99.90;;;;;;5038373;28;20056;-69
2022/05/17 07:25:44;;;;;;;14.90;5.05;;;17.30;99.90;;;;;;5023488;28;20041;-69
2022/05/17 07:28:13;;;;;;;10.90;4.85;;;17.30;99.90;;;;;;5021416;28;20092;-70
2022/05/17 07:30:39;;;;;;;14.95;4.95;;;17.40;99.90;;;;;;5019389;28;20050;-70
2022/05/17 07:33:04;;;;;;;14.73;5.55;;;17.40;99.90;;;;;;5022887;28;20052;-70
2022/05/17 07:35:31;;;;;;;17.38;4.72;;;17.50;99.90;;;;;;5023358;28;20046;-70
2022/05/17 07:37:57;;;;;;;15.85;5.22;;;17.60;99.90;;;;;;5023965;28;20045;-70
2022/05/17 07:40:23;;;;;;;9.10;5.30;;;17.70;99.90;;;;;;5024246;28;20037;-70
2022/05/17 07:42:49;;;;;;;12.35;4.90;;;17.80;99.90;;;;;;5025042;28;20037;-70
2022/05/17 07:45:15;;;;;;;11.57;4.68;;;17.90;99.90;;;;;;5025515;28;20045;-70
2022/05/17 07:47:41;;;;;;;10.52;5.05;;;17.90;99.90;;;;;;5025232;28;20072;-70
2022/05/17 07:50:07;;;;;;;17.08;5.63;;;18.00;99.90;;;;;;5022883;28;20094;-70
2022/05/17 07:52:33;;;;;;;14.07;5.25;;;18.10;99.90;;;;;;5027463;28;20041;-69
2022/05/17 07:55:00;;;;;;;16.17;6.35;;;18.20;99.90;;;;;;5024626;28;20053;-69
2022/05/17 07:57:27;;;;;;;15.93;5.38;;;18.20;99.90;;;;;;5025336;28;20167;-69
2022/05/17 07:59:52;;;;;;;20.45;6.43;;;18.30;99.90;;;;;;5025228;28;20052;-69
2022/05/17 08:02:18;;;;;;;17.83;5.47;;;18.40;99.90;;;;;;5024039;28;20065;-69
2022/05/17 08:04:45;;;;;;;16.90;5.45;;;18.40;99.90;;;;;;5019083;28;20041;-69
2022/05/17 08:07:11;;;;;;;10.15;4.85;;;18.50;99.90;;;;;;5019352;28;20067;-69
2022/05/17 08:09:37;;;;;;;11.68;5.47;;;18.50;99.90;;;;;;5024141;28;20481;-69
2022/05/17 08:12:07;;;;;;;14.50;5.63;;;18.60;99.90;;;;;;5021816;28;20579;-69
2022/05/17 08:14:35;;;;;;;13.27;6.05;;;18.60;99.90;;;;;;5022209;28;20037;-69
2022/05/17 08:17:07;;;;;;;14.15;5.25;;;18.60;99.90;;;;;;5024972;28;20449;-69
2022/05/17 08:19:35;;;;;;;13.80;5.15;;;18.70;99.90;;;;;;5039588;28;20045;-69
2022/05/17 08:22:10;;;;;;;14.85;5.05;;;18.70;99.90;;;;;;5023268;28;20049;-69
2022/05/17 08:27:37;;;;;;;18.00;6.07;;;18.90;99.90;;;;;;5022574;28;20458;-68
2022/05/17 08:30:06;;;;;;;12.20;5.15;;;18.90;99.90;;;;;;5022209;28;20080;-71
2022/05/17 08:35:19;;;;;;;14.77;5.25;;;19.10;99.90;;;;;;5024288;28;20124;-69
2022/05/17 08:37:45;;;;;;;12.52;4.97;;;19.20;99.90;;;;;;5023797;28;20439;-68
2022/05/17 08:40:21;;;;;;;11.18;4.45;;;19.30;99.90;;;;;;5028569;28;20099;-69
2022/05/17 08:43:05;;;;;;;20.05;6.25;;;19.50;99.90;;;;;;5024986;28;20100;-69
2022/05/17 08:45:57;;;;;;;11.10;4.47;;;19.50;99.90;;;;;;5024066;28;20119;-69
2022/05/17 08:48:28;;;;;;;9.13;4.50;;;19.50;99.90;;;;;;5022929;28;20059;-69
2022/05/17 08:50:54;;;;;;;13.57;4.80;;;19.60;99.90;;;;;;5024501;28;20034;-67
2022/05/17 08:53:20;;;;;;;10.02;4.45;;;19.70;99.90;;;;;;5023401;28;20052;-68
2022/05/17 08:55:49;;;;;;;9.25;4.25;;;19.70;99.90;;;;;;5020358;28;20139;-68
2022/05/17 08:58:30;;;;;;;11.60;3.92;;;19.80;99.90;;;;;;5021076;28;20057;-68
2022/05/17 09:01:01;;;;;;;11.07;3.30;;;19.90;99.90;;;;;;5022740;28;20077;-68
2022/05/17 09:03:38;;;;;;;8.73;4.13;;;19.90;99.90;;;;;;5022109;28;20042;-68
2022/05/17 09:06:20;;;;;;;9.32;3.22;;;19.90;99.90;;;;;;5023338;28;20045;-68
2022/05/17 09:09:02;;;;;;;11.80;3.63;;;19.90;99.90;;;;;;5023805;28;20045;-69
2022/05/17 09:11:43;;;;;;;10.77;3.38;;;20.00;99.90;;;;;;5025640;28;20056;-68
2022/05/17 09:14:15;;;;;;;7.03;2.67;;;20.10;99.90;;;;;;5025109;28;20084;-69
2022/05/17 09:16:45;;;;;;;7.32;2.72;;;20.20;99.90;;;;;;5025906;28;20059;-68
2022/05/17 09:19:12;;;;;;;9.40;3.17;;;20.30;99.90;;;;;;5026280;28;20037;-68
2022/05/17 09:21:41;;;;;;;9.43;3.60;;;20.30;99.90;;;;;;5024655;28;20075;-68
2022/05/17 09:24:13;;;;;;;8.52;3.03;;;20.40;99.90;;;;;;5022064;28;20073;-68
2022/05/17 09:27:12;;;;;;;9.57;3.50;;;20.40;99.90;;;;;;5025963;28;20089;-68
2022/05/17 09:29:45;;;;;;;7.95;3.17;;;20.50;99.90;;;;;;5024901;28;20125;-68
2022/05/17 09:32:12;;;;;;;8.20;2.80;;;20.50;99.90;;;;;;5027553;28;20041;-70
2022/05/17 09:34:40;;;;;;;6.93;2.83;;;20.50;99.90;;;;;;5026536;28;20056;-69
2022/05/17 09:37:15;;;;;;;9.57;3.28;;;20.50;99.90;;;;;;5024998;28;20049;-69
2022/05/17 09:39:47;;;;;;;10.35;2.17;;;20.50;99.90;;;;;;5023816;28;20116;-70
2022/05/17 09:42:52;;;;;;;9.20;3.20;;;20.60;99.90;;;;;;5015016;28;20052;-75
2022/05/17 09:45:20;;;;;;;15.38;4.13;;;20.60;99.90;;;;;;5009611;28;20143;-75
2022/05/17 09:47:59;;;;;;;9.02;2.95;;;20.70;99.90;;;;;;5013708;28;20115;-75
2022/05/17 09:53:21;;;;;;;9.52;2.67;;;20.80;99.90;;;;;;5015390;28;20755;-70
2022/05/17 09:56:04;;;;;;;7.32;2.33;;;20.90;99.90;;;;;;5043580;28;20049;-72
2022/05/17 09:58:36;;;;;;;7.97;2.85;;;21.00;99.90;;;;;;5026210;28;20526;-71
2022/05/17 10:01:14;;;;;;;;;;;20.90;99.90;;;;;;5025964;28;20057;-72
2022/05/17 10:03:42;;;;;;;12.93;3.53;;;20.90;99.90;;;;;;5026138;28;20016;-71
2022/05/17 10:06:26;;;;;;;7.43;3.00;;;20.70;99.90;;;;;;5025606;28;20037;-71
2022/05/17 10:09:08;;;;;;;7.60;2.78;;;19.70;99.90;;;;;;5017338;28;20539;-72
2022/05/17 10:11:49;;;;;;;11.13;3.40;;;20.90;99.90;;;;;;5027540;28;20052;-71
2022/05/17 10:14:24;;;;;;;8.57;4.05;;;21.10;99.90;;;;;;5017286;28;20042;-71
2022/05/17 10:17:01;;;;;;;7.38;2.88;;;21.20;99.90;;;;;;5026607;28;20054;-71
2022/05/17 10:20:01;;;;;;;5.75;2.75;;;21.30;99.90;;;;;;5024989;28;20129;-70
2022/05/17 10:22:40;;;;;;;10.27;2.88;;;21.40;99.90;;;;;;5025178;28;20480;-71
2022/05/17 10:25:12;;;;;;;13.52;3.80;;;21.50;99.90;;;;;;5020427;28;20334;-71
2022/05/17 10:27:50;;;;;;;9.50;3.40;;;21.50;99.90;;;;;;5021580;28;20059;-72
2022/05/17 10:30:19;;;;;;;8.40;2.92;;;21.50;99.90;;;;;;5026987;28;20045;-71
2022/05/17 10:33:03;;;;;;;6.55;2.50;;;21.60;99.90;;;;;;5021733;28;20082;-71
2022/05/17 10:35:38;;;;;;;8.98;2.83;;;21.70;99.90;;;;;;5022555;28;20037;-71
2022/05/17 10:38:12;;;;;;;9.40;3.33;;;21.60;99.90;;;;;;5022843;28;20123;-71
2022/05/17 10:40:48;;;;;;;7.68;2.95;;;21.50;99.90;;;;;;5026630;28;20056;-71
2022/05/17 10:43:25;;;;;;;8.93;2.88;;;21.50;99.90;;;;;;5024858;28;20045;-71
2022/05/17 10:46:06;;;;;;;3.63;2.00;;;21.60;99.90;;;;;;5025363;28;20785;-71
2022/05/17 10:48:53;;;;;;;6.82;2.75;;;21.70;99.90;;;;;;5021296;28;20447;-70
2022/05/17 10:51:41;;;;;;;8.02;2.35;;;21.70;99.90;;;;;;5029700;28;20541;-71
2022/05/17 10:54:31;;;;;;;8.50;2.17;;;21.50;99.90;;;;;;5024342;28;20041;-71
2022/05/17 10:57:20;;;;;;;9.68;2.58;;;21.60;99.90;;;;;;5025869;28;20424;-71
2022/05/17 11:00:19;;;;;;;9.52;2.53;;;21.80;99.90;;;;;;5019703;28;20572;-70
2022/05/17 11:03:26;;;;;;;9.65;3.38;;;21.90;99.90;;;;;;5025836;28;20042;-71
2022/05/17 11:06:11;;;;;;;7.47;2.60;;;22.10;99.90;;;;;;5016382;28;20045;-70
2022/05/17 11:08:55;;;;;;;5.65;2.25;;;22.20;99.90;;;;;;5025514;28;20045;-70
2022/05/17 11:12:09;;;;;;;6.97;1.85;;;22.30;99.90;;;;;;5021537;28;20042;-69
2022/05/17 11:14:58;;;;;;;9.02;2.53;;;22.30;99.90;;;;;;5007533;28;20136;-70
2022/05/17 11:17:38;;;;;;;6.88;2.38;;;22.40;99.90;;;;;;5018590;28;20048;-70
2022/05/17 11:20:14;;;;;;;6.55;2.15;;;22.50;99.90;;;;;;5024726;28;20037;-70
2022/05/17 11:22:44;;;;;;;6.97;1.90;;;22.60;99.90;;;;;;5018565;28;20052;-70
2022/05/17 11:25:37;;;;;;;6.07;2.30;;;22.70;99.90;;;;;;5023156;28;20150;-70
2022/05/17 11:28:21;;;;;;;7.68;2.03;;;22.80;99.90;;;;;;5028544;28;20045;-70
2022/05/17 11:30:57;;;;;;;8.18;2.08;;;22.90;99.90;;;;;;5038322;28;20545;-70
2022/05/17 11:33:23;;;;;;;7.68;2.22;;;22.60;99.90;;;;;;5025255;28;20045;-68
2022/05/17 11:35:54;;;;;;;6.95;2.50;;;22.40;99.90;;;;;;5026236;28;20045;-71
2022/05/17 11:38:45;;;;;;;5.60;2.05;;;22.30;99.90;;;;;;5025273;28;20499;-70
2022/05/17 11:41:21;;;;;;;10.07;2.33;;;22.10;99.90;;;;;;5025261;28;20055;-71
2022/05/17 11:44:10;;;;;;;8.60;2.50;;;22.30;99.90;;;;;;5021226;28;20060;-70
2022/05/17 11:46:41;;;;;;;7.05;1.88;;;22.50;99.90;;;;;;5020207;28;20117;-70
2022/05/17 11:49:16;;;;;;;9.27;2.00;;;22.80;99.90;;;;;;5021368;28;20079;-70
2022/05/17 11:51:57;;;;;;;7.80;2.20;;;22.80;99.90;;;;;;5023738;28;20049;-70
2022/05/17 11:54:42;;;;;;;5.13;1.98;;;22.90;99.90;;;;;;5023871;28;20165;-70
2022/05/17 11:57:20;;;;;;;6.70;2.25;;;23.00;94.90;;;;;;5022675;28;20130;-71
2022/05/17 11:59:58;;;;;;;6.75;1.85;;;23.00;94.10;;;;;;5026084;28;20124;-69
2022/05/17 12:02:48;;;;;;;8.18;1.73;;;23.20;94.70;;;;;;5025704;28;20099;-70
2022/05/17 12:05:47;;;;;;;6.80;1.88;;;23.30;90.90;;;;;;5023510;28;20399;-70
2022/05/17 12:08:44;;;;;;;3.38;1.52;;;23.40;90.50;;;;;;5023898;28;20408;-70
2022/05/17 12:11:13;;;;;;;5.57;1.80;;;23.50;86.70;;;;;;5023740;28;20049;-69
2022/05/17 12:13:55;;;;;;;5.53;1.45;;;23.60;91.00;;;;;;5025770;28;20080;-71
2022/05/17 12:16:26;;;;;;;6.68;1.95;;;23.70;87.90;;;;;;5023722;28;20049;-70
2022/05/17 12:18:53;;;;;;;4.90;2.42;;;23.70;83.00;;;;;;5025766;28;20053;-70
2022/05/17 12:21:43;;;;;;;4.03;1.52;;;23.60;84.40;;;;;;5023683;28;20095;-70
2022/05/17 12:24:45;;;;;;;6.97;2.20;;;23.60;81.40;;;;;;5022374;28;20034;-70
2022/05/17 12:27:34;;;;;;;5.13;1.70;;;23.70;85.50;;;;;;5016727;28;20041;-71
2022/05/17 12:33:16;;;;;;;6.90;1.45;;;23.80;82.40;;;;;;5015708;28;20464;-70
2022/05/17 12:35:42;;;;;;;7.45;2.22;;;23.90;83.00;;;;;;5018451;28;20055;-71
2022/05/17 12:43:02;;;;;;;5.40;1.42;;;23.90;79.10;;;;;;5023913;28;20046;-70
2022/05/17 12:43:44;;;;;;;11.30;2.10;;;24.10;77.70;;;;;;5024759;28;20081;-71
2022/05/17 12:46:13;;;;;;;3.13;1.27;;;24.00;79.00;;;;;;5025430;28;20073;-70
2022/05/17 12:48:40;;;;;;;4.88;1.73;;;24.20;78.60;;;;;;5024610;28;20126;-70
2022/05/17 12:51:09;;;;;;;7.10;1.80;;;24.30;77.80;;;;;;5029915;28;20033;-70
2022/05/17 12:53:44;;;;;;;6.38;1.58;;;24.20;77.30;;;;;;5028921;28;20533;-70
2022/05/17 12:56:12;;;;;;;10.32;1.92;;;24.20;76.60;;;;;;5029240;28;20041;-70
2022/05/17 12:59:00;;;;;;;6.93;1.85;;;24.10;78.40;;;;;;5029995;28;20054;-70
2022/05/17 13:01:34;;;;;;;4.55;1.40;;;24.20;84.10;;;;;;5028821;28;20049;-70
2022/05/17 13:04:10;;;;;;;8.95;2.17;;;24.30;79.00;;;;;;5029395;28;20037;-69
2022/05/17 13:06:44;;;;;;;6.97;2.08;;;24.40;76.50;;;;;;5028494;28;20393;-70
2022/05/17 13:09:19;;;;;;;7.25;1.90;;;24.50;75.90;;;;;;5028675;28;20045;-70
2022/05/17 13:11:45;;;;;;;5.03;1.88;;;24.50;73.20;;;;;;5029862;28;20516;-70
2022/05/17 13:14:28;;;;;;;4.35;1.58;;;24.50;77.50;;;;;;5027549;28;20077;-70
2022/05/17 13:17:04;;;;;;;9.70;1.83;;;24.70;77.90;;;;;;5028514;28;20045;-71
2022/05/17 13:19:30;;;;;;;4.78;1.70;;;24.70;76.20;;;;;;5030285;28;20052;-70